sensor_id;sensor_type;location;lat;lon;timestamp;P1;durP1;ratioP1;P2;durP2;ratioP2
40471;SDS011;26174;42.908;23.800;2023-08-20T00:01:05;9.65;;;6.53;;
40471;SDS011;26174;42.908;23.800;2023-08-20T00:03:33;11.23;;;6.80;;
40471;SDS011;26174;42.908;23.800;2023-08-20T00:05:59;8.75;;;6.47;;
40471;SDS011;26174;42.908;23.800;2023-08-20T00:08:24;11.15;;;6.18;;
40471;SDS011;26174;42.908;23.800;2023-08-20T00:10:50;12.18;;;6.50;;
40471;SDS011;26174;42.908;23.800;2023-08-20T00:13:15;10.48;;;6.05;;
40471;SDS011;26174;42.908;23.800;2023-08-20T00:15:41;10.05;;;6.60;;
40471;SDS011;26174;42.908;23.800;2023-08-20T00:18:07;10.52;;;6.35;;
40471;SDS011;26174;42.908;23.800;2023-08-20T00:20:33;13.73;;;6.78;;
40471;SDS011;26174;42.908;23.800;2023-08-20T00:22:58;10.57;;;6.45;;
40471;SDS011;26174;42.908;23.800;2023-08-20T00:25:24;9.88;;;6.88;;
40471;SDS011;26174;42.908;23.800;2023-08-20T00:27:50;13.65;;;7.00;;
40471;SDS011;26174;42.908;23.800;2023-08-20T00:30:15;11.23;;;6.75;;
40471;SDS011;26174;42.908;23.800;2023-08-20T00:32:41;10.07;;;6.72;;
40471;SDS011;26174;42.908;23.800;2023-08-20T00:35:07;10.68;;;6.78;;
40471;SDS011;26174;42.908;23.800;2023-08-20T00:37:33;11.90;;;6.85;;
40471;SDS011;26174;42.908;23.800;2023-08-20T00:39:58;10.32;;;6.82;;
40471;SDS011;26174;42.908;23.800;2023-08-20T00:42:24;12.75;;;6.28;;
40471;SDS011;26174;42.908;23.800;2023-08-20T00:44:51;12.30;;;7.43;;
40471;SDS011;26174;42.908;23.800;2023-08-20T00:47:17;11.35;;;6.75;;
40471;SDS011;26174;42.908;23.800;2023-08-20T00:49:43;11.07;;;6.65;;
40471;SDS011;26174;42.908;23.800;2023-08-20T00:52:09;12.55;;;7.03;;
40471;SDS011;26174;42.908;23.800;2023-08-20T00:54:36;16.25;;;7.15;;
40471;SDS011;26174;42.908;23.800;2023-08-20T00:57:02;11.40;;;6.43;;
40471;SDS011;26174;42.908;23.800;2023-08-20T00:59:31;11.15;;;5.93;;
40471;SDS011;26174;42.908;23.800;2023-08-20T01:01:57;13.38;;;5.93;;
40471;SDS011;26174;42.908;23.800;2023-08-20T01:04:23;9.05;;;6.50;;
40471;SDS011;26174;42.908;23.800;2023-08-20T01:07:00;9.18;;;6.65;;
40471;SDS011;26174;42.908;23.800;2023-08-20T01:12:02;11.77;;;6.95;;
40471;SDS011;26174;42.908;23.800;2023-08-20T01:14:28;11.65;;;7.00;;
40471;SDS011;26174;42.908;23.800;2023-08-20T01:16:54;11.77;;;6.40;;
40471;SDS011;26174;42.908;23.800;2023-08-20T01:19:20;14.18;;;6.50;;
40471;SDS011;26174;42.908;23.800;2023-08-20T01:25:17;9.68;;;6.22;;
40471;SDS011;26174;42.908;23.800;2023-08-20T01:30:23;9.40;;;6.18;;
40471;SDS011;26174;42.908;23.800;2023-08-20T01:32:49;13.38;;;7.07;;
40471;SDS011;26174;42.908;23.800;2023-08-20T01:35:16;8.63;;;6.28;;
40471;SDS011;26174;42.908;23.800;2023-08-20T01:37:41;9.48;;;6.75;;
40471;SDS011;26174;42.908;23.800;2023-08-20T01:40:07;9.32;;;6.47;;
40471;SDS011;26174;42.908;23.800;2023-08-20T01:42:35;13.23;;;7.35;;
40471;SDS011;26174;42.908;23.800;2023-08-20T01:45:04;9.88;;;6.82;;
40471;SDS011;26174;42.908;23.800;2023-08-20T01:47:31;11.50;;;6.50;;
40471;SDS011;26174;42.908;23.800;2023-08-20T01:49:57;9.70;;;6.95;;
40471;SDS011;26174;42.908;23.800;2023-08-20T01:52:23;8.98;;;6.57;;
40471;SDS011;26174;42.908;23.800;2023-08-20T01:54:49;7.85;;;6.25;;
40471;SDS011;26174;42.908;23.800;2023-08-20T01:57:15;12.27;;;6.63;;
40471;SDS011;26174;42.908;23.800;2023-08-20T01:59:40;11.25;;;6.63;;
40471;SDS011;26174;42.908;23.800;2023-08-20T02:02:06;13.60;;;6.60;;
40471;SDS011;26174;42.908;23.800;2023-08-20T02:04:32;8.35;;;6.78;;
40471;SDS011;26174;42.908;23.800;2023-08-20T02:06:58;13.90;;;6.95;;
40471;SDS011;26174;42.908;23.800;2023-08-20T02:09:23;9.88;;;6.70;;
40471;SDS011;26174;42.908;23.800;2023-08-20T02:11:49;12.52;;;7.63;;
40471;SDS011;26174;42.908;23.800;2023-08-20T02:14:16;13.07;;;6.78;;
40471;SDS011;26174;42.908;23.800;2023-08-20T02:16:41;11.07;;;7.05;;
40471;SDS011;26174;42.908;23.800;2023-08-20T02:19:07;16.25;;;7.18;;
40471;SDS011;26174;42.908;23.800;2023-08-20T02:21:32;9.38;;;6.65;;
40471;SDS011;26174;42.908;23.800;2023-08-20T02:23:58;10.23;;;6.53;;
40471;SDS011;26174;42.908;23.800;2023-08-20T02:26:24;13.23;;;6.70;;
40471;SDS011;26174;42.908;23.800;2023-08-20T02:28:49;12.88;;;7.18;;
40471;SDS011;26174;42.908;23.800;2023-08-20T02:31:15;18.50;;;6.20;;
40471;SDS011;26174;42.908;23.800;2023-08-20T02:33:40;16.02;;;7.55;;
40471;SDS011;26174;42.908;23.800;2023-08-20T02:36:06;11.93;;;6.80;;
40471;SDS011;26174;42.908;23.800;2023-08-20T02:38:32;15.05;;;6.95;;
40471;SDS011;26174;42.908;23.800;2023-08-20T02:40:57;10.40;;;6.47;;
40471;SDS011;26174;42.908;23.800;2023-08-20T02:43:23;10.82;;;7.20;;
40471;SDS011;26174;42.908;23.800;2023-08-20T02:45:48;13.40;;;7.20;;
40471;SDS011;26174;42.908;23.800;2023-08-20T02:48:14;10.68;;;6.82;;
40471;SDS011;26174;42.908;23.800;2023-08-20T02:50:40;13.82;;;6.82;;
40471;SDS011;26174;42.908;23.800;2023-08-20T02:53:06;9.55;;;6.82;;
40471;SDS011;26174;42.908;23.800;2023-08-20T02:55:31;11.48;;;6.65;;
40471;SDS011;26174;42.908;23.800;2023-08-20T02:57:57;13.25;;;6.97;;
40471;SDS011;26174;42.908;23.800;2023-08-20T03:00:23;13.80;;;7.35;;
40471;SDS011;26174;42.908;23.800;2023-08-20T03:02:48;14.82;;;6.78;;
40471;SDS011;26174;42.908;23.800;2023-08-20T03:05:14;9.55;;;6.72;;
40471;SDS011;26174;42.908;23.800;2023-08-20T03:07:39;23.67;;;13.45;;
40471;SDS011;26174;42.908;23.800;2023-08-20T03:10:05;44.15;;;22.75;;
40471;SDS011;26174;42.908;23.800;2023-08-20T03:12:31;41.22;;;24.35;;
40471;SDS011;26174;42.908;23.800;2023-08-20T03:14:57;34.20;;;20.95;;
40471;SDS011;26174;42.908;23.800;2023-08-20T03:17:22;26.30;;;16.73;;
40471;SDS011;26174;42.908;23.800;2023-08-20T03:19:55;27.20;;;15.55;;
40471;SDS011;26174;42.908;23.800;2023-08-20T03:22:22;20.70;;;12.82;;
40471;SDS011;26174;42.908;23.800;2023-08-20T03:24:48;24.45;;;11.30;;
40471;SDS011;26174;42.908;23.800;2023-08-20T03:27:15;15.15;;;9.73;;
40471;SDS011;26174;42.908;23.800;2023-08-20T03:29:41;19.10;;;9.23;;
40471;SDS011;26174;42.908;23.800;2023-08-20T03:32:06;24.88;;;10.65;;
40471;SDS011;26174;42.908;23.800;2023-08-20T03:34:32;18.25;;;10.45;;
40471;SDS011;26174;42.908;23.800;2023-08-20T03:36:57;27.52;;;10.00;;
40471;SDS011;26174;42.908;23.800;2023-08-20T03:39:23;19.25;;;10.65;;
40471;SDS011;26174;42.908;23.800;2023-08-20T03:41:49;15.63;;;9.35;;
40471;SDS011;26174;42.908;23.800;2023-08-20T03:44:15;15.10;;;7.82;;
40471;SDS011;26174;42.908;23.800;2023-08-20T03:46:41;11.60;;;7.55;;
40471;SDS011;26174;42.908;23.800;2023-08-20T03:49:06;15.60;;;7.72;;
40471;SDS011;26174;42.908;23.800;2023-08-20T03:51:32;17.92;;;7.72;;
40471;SDS011;26174;42.908;23.800;2023-08-20T03:53:57;14.95;;;7.25;;
40471;SDS011;26174;42.908;23.800;2023-08-20T03:56:22;12.32;;;7.22;;
40471;SDS011;26174;42.908;23.800;2023-08-20T03:58:48;19.08;;;7.82;;
40471;SDS011;26174;42.908;23.800;2023-08-20T04:01:13;10.52;;;7.75;;
40471;SDS011;26174;42.908;23.800;2023-08-20T04:03:39;20.90;;;7.60;;
40471;SDS011;26174;42.908;23.800;2023-08-20T04:06:04;22.30;;;8.55;;
40471;SDS011;26174;42.908;23.800;2023-08-20T04:08:30;14.70;;;8.18;;
40471;SDS011;26174;42.908;23.800;2023-08-20T04:10:56;14.35;;;8.98;;
40471;SDS011;26174;42.908;23.800;2023-08-20T04:13:21;16.75;;;8.00;;
40471;SDS011;26174;42.908;23.800;2023-08-20T04:15:47;13.40;;;8.57;;
40471;SDS011;26174;42.908;23.800;2023-08-20T04:18:12;12.48;;;8.07;;
40471;SDS011;26174;42.908;23.800;2023-08-20T04:20:38;15.68;;;8.30;;
40471;SDS011;26174;42.908;23.800;2023-08-20T04:23:03;18.00;;;8.68;;
40471;SDS011;26174;42.908;23.800;2023-08-20T04:25:29;19.05;;;8.40;;
40471;SDS011;26174;42.908;23.800;2023-08-20T04:27:55;13.35;;;7.82;;
40471;SDS011;26174;42.908;23.800;2023-08-20T04:30:20;17.13;;;8.68;;
40471;SDS011;26174;42.908;23.800;2023-08-20T04:32:46;24.17;;;8.32;;
40471;SDS011;26174;42.908;23.800;2023-08-20T04:35:11;22.88;;;8.27;;
40471;SDS011;26174;42.908;23.800;2023-08-20T04:37:37;18.00;;;7.97;;
40471;SDS011;26174;42.908;23.800;2023-08-20T04:40:02;19.08;;;7.75;;
40471;SDS011;26174;42.908;23.800;2023-08-20T04:42:33;28.30;;;7.70;;
40471;SDS011;26174;42.908;23.800;2023-08-20T04:44:58;12.48;;;7.97;;
40471;SDS011;26174;42.908;23.800;2023-08-20T04:47:24;15.35;;;7.72;;
40471;SDS011;26174;42.908;23.800;2023-08-20T04:49:49;15.40;;;8.20;;
40471;SDS011;26174;42.908;23.800;2023-08-20T04:52:15;25.50;;;9.63;;
40471;SDS011;26174;42.908;23.800;2023-08-20T04:54:40;22.88;;;9.18;;
40471;SDS011;26174;42.908;23.800;2023-08-20T04:57:06;15.57;;;9.07;;
40471;SDS011;26174;42.908;23.800;2023-08-20T04:59:31;18.92;;;9.57;;
40471;SDS011;26174;42.908;23.800;2023-08-20T05:01:57;16.65;;;9.18;;
40471;SDS011;26174;42.908;23.800;2023-08-20T05:04:22;20.20;;;8.90;;
40471;SDS011;26174;42.908;23.800;2023-08-20T05:06:48;15.85;;;9.10;;
40471;SDS011;26174;42.908;23.800;2023-08-20T05:09:14;15.00;;;8.60;;
40471;SDS011;26174;42.908;23.800;2023-08-20T05:11:40;33.22;;;10.20;;
40471;SDS011;26174;42.908;23.800;2023-08-20T05:14:06;21.88;;;8.75;;
40471;SDS011;26174;42.908;23.800;2023-08-20T05:16:31;18.98;;;10.48;;
40471;SDS011;26174;42.908;23.800;2023-08-20T05:18:57;14.85;;;10.13;;
40471;SDS011;26174;42.908;23.800;2023-08-20T05:21:22;21.60;;;10.25;;
40471;SDS011;26174;42.908;23.800;2023-08-20T05:23:48;21.02;;;10.40;;
40471;SDS011;26174;42.908;23.800;2023-08-20T05:26:13;18.80;;;9.73;;
40471;SDS011;26174;42.908;23.800;2023-08-20T05:28:39;12.40;;;8.90;;
40471;SDS011;26174;42.908;23.800;2023-08-20T05:31:04;22.98;;;9.00;;
40471;SDS011;26174;42.908;23.800;2023-08-20T05:33:30;15.10;;;8.95;;
40471;SDS011;26174;42.908;23.800;2023-08-20T05:35:55;20.20;;;8.30;;
40471;SDS011;26174;42.908;23.800;2023-08-20T05:38:21;16.77;;;8.70;;
40471;SDS011;26174;42.908;23.800;2023-08-20T05:40:46;14.55;;;9.02;;
40471;SDS011;26174;42.908;23.800;2023-08-20T05:43:12;16.48;;;8.35;;
40471;SDS011;26174;42.908;23.800;2023-08-20T05:45:37;15.80;;;8.13;;
40471;SDS011;26174;42.908;23.800;2023-08-20T05:48:03;23.30;;;8.52;;
40471;SDS011;26174;42.908;23.800;2023-08-20T05:50:29;12.77;;;7.55;;
40471;SDS011;26174;42.908;23.800;2023-08-20T05:52:54;28.08;;;7.75;;
40471;SDS011;26174;42.908;23.800;2023-08-20T05:55:19;12.63;;;7.20;;
40471;SDS011;26174;42.908;23.800;2023-08-20T05:57:45;12.43;;;7.75;;
40471;SDS011;26174;42.908;23.800;2023-08-20T06:00:11;9.27;;;7.13;;
40471;SDS011;26174;42.908;23.800;2023-08-20T06:02:37;16.42;;;7.78;;
40471;SDS011;26174;42.908;23.800;2023-08-20T06:05:03;25.38;;;8.18;;
40471;SDS011;26174;42.908;23.800;2023-08-20T06:07:30;13.50;;;7.20;;
40471;SDS011;26174;42.908;23.800;2023-08-20T06:09:56;22.08;;;7.75;;
40471;SDS011;26174;42.908;23.800;2023-08-20T06:12:22;12.50;;;7.35;;
40471;SDS011;26174;42.908;23.800;2023-08-20T06:14:48;20.60;;;8.88;;
40471;SDS011;26174;42.908;23.800;2023-08-20T06:17:13;22.95;;;6.63;;
40471;SDS011;26174;42.908;23.800;2023-08-20T06:19:39;30.23;;;15.95;;
40471;SDS011;26174;42.908;23.800;2023-08-20T06:22:04;12.48;;;6.65;;
40471;SDS011;26174;42.908;23.800;2023-08-20T06:24:30;20.23;;;8.13;;
40471;SDS011;26174;42.908;23.800;2023-08-20T06:26:55;30.02;;;7.78;;
40471;SDS011;26174;42.908;23.800;2023-08-20T06:29:21;17.40;;;7.47;;
40471;SDS011;26174;42.908;23.800;2023-08-20T06:31:49;12.13;;;7.30;;
40471;SDS011;26174;42.908;23.800;2023-08-20T06:34:15;12.23;;;7.10;;
40471;SDS011;26174;42.908;23.800;2023-08-20T06:36:41;16.58;;;9.57;;
40471;SDS011;26174;42.908;23.800;2023-08-20T06:39:06;9.95;;;6.82;;
40471;SDS011;26174;42.908;23.800;2023-08-20T06:41:32;11.40;;;6.70;;
40471;SDS011;26174;42.908;23.800;2023-08-20T06:44:03;15.57;;;9.25;;
40471;SDS011;26174;42.908;23.800;2023-08-20T06:46:28;16.33;;;7.68;;
40471;SDS011;26174;42.908;23.800;2023-08-20T06:48:54;12.60;;;7.05;;
40471;SDS011;26174;42.908;23.800;2023-08-20T06:51:20;14.55;;;7.40;;
40471;SDS011;26174;42.908;23.800;2023-08-20T06:53:48;19.50;;;13.52;;
40471;SDS011;26174;42.908;23.800;2023-08-20T06:56:14;12.80;;;8.55;;
40471;SDS011;26174;42.908;23.800;2023-08-20T06:58:40;12.38;;;9.38;;
40471;SDS011;26174;42.908;23.800;2023-08-20T07:01:06;10.25;;;7.45;;
40471;SDS011;26174;42.908;23.800;2023-08-20T07:03:42;20.05;;;8.05;;
40471;SDS011;26174;42.908;23.800;2023-08-20T07:06:09;27.55;;;8.52;;
40471;SDS011;26174;42.908;23.800;2023-08-20T07:08:35;14.60;;;7.45;;
40471;SDS011;26174;42.908;23.800;2023-08-20T07:11:02;18.17;;;6.88;;
40471;SDS011;26174;42.908;23.800;2023-08-20T07:13:27;18.60;;;7.53;;
40471;SDS011;26174;42.908;23.800;2023-08-20T07:15:53;11.88;;;6.90;;
40471;SDS011;26174;42.908;23.800;2023-08-20T07:18:19;10.80;;;6.95;;
40471;SDS011;26174;42.908;23.800;2023-08-20T07:20:45;9.60;;;6.63;;
40471;SDS011;26174;42.908;23.800;2023-08-20T07:23:11;13.43;;;6.05;;
40471;SDS011;26174;42.908;23.800;2023-08-20T07:25:37;18.25;;;6.78;;
40471;SDS011;26174;42.908;23.800;2023-08-20T07:28:04;13.68;;;6.50;;
40471;SDS011;26174;42.908;23.800;2023-08-20T07:33:20;10.20;;;6.00;;
40471;SDS011;26174;42.908;23.800;2023-08-20T07:35:45;12.63;;;6.25;;
40471;SDS011;26174;42.908;23.800;2023-08-20T07:38:11;11.23;;;5.60;;
40471;SDS011;26174;42.908;23.800;2023-08-20T07:40:36;24.42;;;8.15;;
40471;SDS011;26174;42.908;23.800;2023-08-20T07:43:02;8.40;;;5.47;;
40471;SDS011;26174;42.908;23.800;2023-08-20T07:45:27;13.57;;;6.03;;
40471;SDS011;26174;42.908;23.800;2023-08-20T07:47:53;6.45;;;5.20;;
40471;SDS011;26174;42.908;23.800;2023-08-20T07:50:18;8.55;;;5.90;;
40471;SDS011;26174;42.908;23.800;2023-08-20T07:52:44;15.90;;;5.85;;
40471;SDS011;26174;42.908;23.800;2023-08-20T07:55:09;13.88;;;6.25;;
40471;SDS011;26174;42.908;23.800;2023-08-20T07:57:35;27.65;;;5.60;;
40471;SDS011;26174;42.908;23.800;2023-08-20T08:00:00;8.18;;;5.70;;
40471;SDS011;26174;42.908;23.800;2023-08-20T08:02:29;19.70;;;5.60;;
40471;SDS011;26174;42.908;23.800;2023-08-20T08:04:54;22.40;;;5.97;;
40471;SDS011;26174;42.908;23.800;2023-08-20T08:07:20;15.20;;;5.60;;
40471;SDS011;26174;42.908;23.800;2023-08-20T08:09:45;7.97;;;5.55;;
40471;SDS011;26174;42.908;23.800;2023-08-20T08:12:11;11.38;;;5.90;;
40471;SDS011;26174;42.908;23.800;2023-08-20T08:14:36;12.88;;;5.80;;
40471;SDS011;26174;42.908;23.800;2023-08-20T08:17:02;9.18;;;5.32;;
40471;SDS011;26174;42.908;23.800;2023-08-20T08:19:29;9.20;;;5.18;;
40471;SDS011;26174;42.908;23.800;2023-08-20T08:21:56;10.63;;;5.38;;
40471;SDS011;26174;42.908;23.800;2023-08-20T08:24:21;7.30;;;4.82;;
40471;SDS011;26174;42.908;23.800;2023-08-20T08:26:47;13.32;;;5.07;;
40471;SDS011;26174;42.908;23.800;2023-08-20T08:29:12;8.38;;;4.50;;
40471;SDS011;26174;42.908;23.800;2023-08-20T08:31:38;7.07;;;4.72;;
40471;SDS011;26174;42.908;23.800;2023-08-20T08:34:03;11.93;;;5.15;;
40471;SDS011;26174;42.908;23.800;2023-08-20T08:36:29;17.83;;;5.45;;
40471;SDS011;26174;42.908;23.800;2023-08-20T08:38:54;18.80;;;4.97;;
40471;SDS011;26174;42.908;23.800;2023-08-20T08:41:23;15.60;;;4.60;;
40471;SDS011;26174;42.908;23.800;2023-08-20T08:43:50;7.07;;;4.10;;
40471;SDS011;26174;42.908;23.800;2023-08-20T08:46:17;6.60;;;4.55;;
40471;SDS011;26174;42.908;23.800;2023-08-20T08:48:43;50.17;;;6.68;;
40471;SDS011;26174;42.908;23.800;2023-08-20T08:51:11;10.77;;;4.40;;
40471;SDS011;26174;42.908;23.800;2023-08-20T08:53:37;4.70;;;4.03;;
40471;SDS011;26174;42.908;23.800;2023-08-20T08:56:03;46.78;;;5.82;;
40471;SDS011;26174;42.908;23.800;2023-08-20T08:58:30;13.10;;;4.45;;
40471;SDS011;26174;42.908;23.800;2023-08-20T09:00:57;9.85;;;4.68;;
40471;SDS011;26174;42.908;23.800;2023-08-20T09:03:23;12.68;;;5.00;;
40471;SDS011;26174;42.908;23.800;2023-08-20T09:05:50;7.65;;;4.95;;
40471;SDS011;26174;42.908;23.800;2023-08-20T09:08:23;13.32;;;4.97;;
40471;SDS011;26174;42.908;23.800;2023-08-20T09:10:52;7.07;;;4.05;;
40471;SDS011;26174;42.908;23.800;2023-08-20T09:13:23;13.70;;;4.57;;
40471;SDS011;26174;42.908;23.800;2023-08-20T09:15:53;6.45;;;3.85;;
40471;SDS011;26174;42.908;23.800;2023-08-20T09:18:19;5.93;;;3.92;;
40471;SDS011;26174;42.908;23.800;2023-08-20T09:20:45;29.45;;;25.38;;
40471;SDS011;26174;42.908;23.800;2023-08-20T09:23:13;5.25;;;4.10;;
40471;SDS011;26174;42.908;23.800;2023-08-20T09:25:39;4.63;;;4.10;;
40471;SDS011;26174;42.908;23.800;2023-08-20T09:28:05;5.15;;;3.70;;
40471;SDS011;26174;42.908;23.800;2023-08-20T09:30:31;5.45;;;4.75;;
40471;SDS011;26174;42.908;23.800;2023-08-20T09:35:29;7.30;;;4.28;;
40471;SDS011;26174;42.908;23.800;2023-08-20T09:37:59;4.68;;;4.10;;
40471;SDS011;26174;42.908;23.800;2023-08-20T09:40:26;5.78;;;4.00;;
40471;SDS011;26174;42.908;23.800;2023-08-20T09:42:52;10.82;;;4.30;;
40471;SDS011;26174;42.908;23.800;2023-08-20T09:45:19;14.18;;;4.75;;
40471;SDS011;26174;42.908;23.800;2023-08-20T09:47:45;14.30;;;4.32;;
40471;SDS011;26174;42.908;23.800;2023-08-20T09:50:13;8.00;;;4.93;;
40471;SDS011;26174;42.908;23.800;2023-08-20T09:52:52;9.70;;;5.25;;
40471;SDS011;26174;42.908;23.800;2023-08-20T09:55:22;4.07;;;3.67;;
40471;SDS011;26174;42.908;23.800;2023-08-20T09:57:50;8.65;;;4.22;;
40471;SDS011;26174;42.908;23.800;2023-08-20T10:00:17;9.70;;;4.00;;
40471;SDS011;26174;42.908;23.800;2023-08-20T10:02:43;7.20;;;4.20;;
40471;SDS011;26174;42.908;23.800;2023-08-20T10:05:09;8.82;;;4.00;;
40471;SDS011;26174;42.908;23.800;2023-08-20T10:07:35;12.77;;;4.50;;
40471;SDS011;26174;42.908;23.800;2023-08-20T10:10:02;5.47;;;4.05;;
40471;SDS011;26174;42.908;23.800;2023-08-20T10:12:38;13.50;;;4.45;;
40471;SDS011;26174;42.908;23.800;2023-08-20T10:15:04;17.23;;;4.85;;
40471;SDS011;26174;42.908;23.800;2023-08-20T10:17:30;10.65;;;5.28;;
40471;SDS011;26174;42.908;23.800;2023-08-20T10:19:58;8.25;;;3.95;;
40471;SDS011;26174;42.908;23.800;2023-08-20T10:22:36;5.18;;;3.47;;
40471;SDS011;26174;42.908;23.800;2023-08-20T10:25:06;21.23;;;13.55;;
40471;SDS011;26174;42.908;23.800;2023-08-20T10:27:34;6.40;;;3.75;;
40471;SDS011;26174;42.908;23.800;2023-08-20T10:30:00;4.93;;;3.70;;
40471;SDS011;26174;42.908;23.800;2023-08-20T10:33:00;4.75;;;3.38;;
40471;SDS011;26174;42.908;23.800;2023-08-20T10:35:25;4.85;;;3.83;;
40471;SDS011;26174;42.908;23.800;2023-08-20T10:38:06;5.88;;;4.30;;
40471;SDS011;26174;42.908;23.800;2023-08-20T10:43:39;5.85;;;3.80;;
40471;SDS011;26174;42.908;23.800;2023-08-20T10:46:15;6.88;;;4.30;;
40471;SDS011;26174;42.908;23.800;2023-08-20T10:49:04;7.35;;;4.55;;
40471;SDS011;26174;42.908;23.800;2023-08-20T10:51:36;14.20;;;11.25;;
40471;SDS011;26174;42.908;23.800;2023-08-20T10:56:56;5.50;;;3.60;;
40471;SDS011;26174;42.908;23.800;2023-08-20T10:59:28;5.47;;;3.72;;
40471;SDS011;26174;42.908;23.800;2023-08-20T11:01:57;4.93;;;4.03;;
40471;SDS011;26174;42.908;23.800;2023-08-20T11:04:25;6.05;;;3.58;;
40471;SDS011;26174;42.908;23.800;2023-08-20T11:06:53;5.10;;;3.83;;
40471;SDS011;26174;42.908;23.800;2023-08-20T11:09:21;10.63;;;3.40;;
40471;SDS011;26174;42.908;23.800;2023-08-20T11:11:47;6.90;;;3.95;;
40471;SDS011;26174;42.908;23.800;2023-08-20T11:14:13;8.13;;;3.97;;
40471;SDS011;26174;42.908;23.800;2023-08-20T11:16:40;6.35;;;3.17;;
40471;SDS011;26174;42.908;23.800;2023-08-20T11:19:06;6.63;;;4.10;;
40471;SDS011;26174;42.908;23.800;2023-08-20T11:21:35;4.07;;;3.67;;
40471;SDS011;26174;42.908;23.800;2023-08-20T11:24:02;12.75;;;3.55;;
40471;SDS011;26174;42.908;23.800;2023-08-20T11:26:28;4.70;;;3.58;;
40471;SDS011;26174;42.908;23.800;2023-08-20T11:28:54;4.05;;;3.50;;
40471;SDS011;26174;42.908;23.800;2023-08-20T11:31:20;5.10;;;3.55;;
40471;SDS011;26174;42.908;23.800;2023-08-20T11:33:56;12.82;;;4.10;;
40471;SDS011;26174;42.908;23.800;2023-08-20T11:37:10;13.07;;;3.75;;
40471;SDS011;26174;42.908;23.800;2023-08-20T11:39:41;4.55;;;3.17;;
40471;SDS011;26174;42.908;23.800;2023-08-20T11:42:13;4.63;;;3.42;;
40471;SDS011;26174;42.908;23.800;2023-08-20T11:44:47;4.93;;;3.50;;
40471;SDS011;26174;42.908;23.800;2023-08-20T11:47:13;3.58;;;3.28;;
40471;SDS011;26174;42.908;23.800;2023-08-20T11:49:40;5.80;;;2.95;;
40471;SDS011;26174;42.908;23.800;2023-08-20T11:52:06;6.30;;;3.00;;
40471;SDS011;26174;42.908;23.800;2023-08-20T11:54:31;5.15;;;3.28;;
40471;SDS011;26174;42.908;23.800;2023-08-20T11:57:01;40.97;;;5.20;;
40471;SDS011;26174;42.908;23.800;2023-08-20T11:59:28;7.13;;;3.20;;
40471;SDS011;26174;42.908;23.800;2023-08-20T12:01:57;7.30;;;3.00;;
40471;SDS011;26174;42.908;23.800;2023-08-20T12:04:25;3.90;;;3.20;;
40471;SDS011;26174;42.908;23.800;2023-08-20T12:07:13;4.68;;;3.30;;
40471;SDS011;26174;42.908;23.800;2023-08-20T12:09:39;6.38;;;3.42;;
40471;SDS011;26174;42.908;23.800;2023-08-20T12:12:06;6.68;;;3.28;;
40471;SDS011;26174;42.908;23.800;2023-08-20T12:14:32;4.82;;;2.65;;
40471;SDS011;26174;42.908;23.800;2023-08-20T12:16:58;16.17;;;3.72;;
40471;SDS011;26174;42.908;23.800;2023-08-20T12:19:24;3.45;;;3.15;;
40471;SDS011;26174;42.908;23.800;2023-08-20T12:21:50;7.88;;;3.60;;
40471;SDS011;26174;42.908;23.800;2023-08-20T12:24:16;4.80;;;2.95;;
40471;SDS011;26174;42.908;23.800;2023-08-20T12:26:41;9.38;;;3.60;;
40471;SDS011;26174;42.908;23.800;2023-08-20T12:29:07;8.05;;;3.05;;
40471;SDS011;26174;42.908;23.800;2023-08-20T12:31:33;5.88;;;3.05;;
40471;SDS011;26174;42.908;23.800;2023-08-20T12:33:59;5.00;;;2.92;;
40471;SDS011;26174;42.908;23.800;2023-08-20T12:36:28;3.90;;;3.00;;
40471;SDS011;26174;42.908;23.800;2023-08-20T12:38:54;7.55;;;3.30;;
40471;SDS011;26174;42.908;23.800;2023-08-20T12:41:20;4.82;;;3.58;;
40471;SDS011;26174;42.908;23.800;2023-08-20T12:43:45;9.07;;;4.10;;
40471;SDS011;26174;42.908;23.800;2023-08-20T12:46:11;3.00;;;2.70;;
40471;SDS011;26174;42.908;23.800;2023-08-20T12:48:38;11.93;;;3.47;;
40471;SDS011;26174;42.908;23.800;2023-08-20T12:51:03;5.05;;;2.97;;
40471;SDS011;26174;42.908;23.800;2023-08-20T12:53:29;3.08;;;2.78;;
40471;SDS011;26174;42.908;23.800;2023-08-20T12:55:54;5.43;;;4.65;;
40471;SDS011;26174;42.908;23.800;2023-08-20T12:58:20;11.70;;;3.35;;
40471;SDS011;26174;42.908;23.800;2023-08-20T13:00:45;8.20;;;3.65;;
40471;SDS011;26174;42.908;23.800;2023-08-20T13:03:12;4.28;;;2.90;;
40471;SDS011;26174;42.908;23.800;2023-08-20T13:05:38;7.75;;;3.83;;
40471;SDS011;26174;42.908;23.800;2023-08-20T13:08:04;5.38;;;3.33;;
40471;SDS011;26174;42.908;23.800;2023-08-20T13:10:30;5.28;;;3.08;;
40471;SDS011;26174;42.908;23.800;2023-08-20T13:12:58;10.35;;;3.47;;
40471;SDS011;26174;42.908;23.800;2023-08-20T13:15:26;7.63;;;3.33;;
40471;SDS011;26174;42.908;23.800;2023-08-20T13:17:52;4.82;;;3.55;;
40471;SDS011;26174;42.908;23.800;2023-08-20T13:20:18;4.05;;;3.15;;
40471;SDS011;26174;42.908;23.800;2023-08-20T13:22:48;7.43;;;3.15;;
40471;SDS011;26174;42.908;23.800;2023-08-20T13:25:15;8.32;;;3.80;;
40471;SDS011;26174;42.908;23.800;2023-08-20T13:27:41;5.85;;;3.03;;
40471;SDS011;26174;42.908;23.800;2023-08-20T13:30:07;3.88;;;3.13;;
40471;SDS011;26174;42.908;23.800;2023-08-20T13:32:33;7.43;;;3.78;;
40471;SDS011;26174;42.908;23.800;2023-08-20T13:35:00;3.95;;;3.45;;
40471;SDS011;26174;42.908;23.800;2023-08-20T13:37:25;9.07;;;3.30;;
40471;SDS011;26174;42.908;23.800;2023-08-20T13:39:51;19.48;;;4.30;;
40471;SDS011;26174;42.908;23.800;2023-08-20T13:42:16;5.85;;;3.58;;
40471;SDS011;26174;42.908;23.800;2023-08-20T13:44:42;16.60;;;5.07;;
40471;SDS011;26174;42.908;23.800;2023-08-20T13:47:07;6.60;;;4.50;;
40471;SDS011;26174;42.908;23.800;2023-08-20T13:49:33;11.55;;;3.70;;
40471;SDS011;26174;42.908;23.800;2023-08-20T13:51:58;5.65;;;3.42;;
40471;SDS011;26174;42.908;23.800;2023-08-20T13:54:24;11.90;;;4.07;;
40471;SDS011;26174;42.908;23.800;2023-08-20T13:56:49;11.90;;;4.28;;
40471;SDS011;26174;42.908;23.800;2023-08-20T13:59:15;9.10;;;5.53;;
40471;SDS011;26174;42.908;23.800;2023-08-20T14:01:41;12.07;;;3.85;;
40471;SDS011;26174;42.908;23.800;2023-08-20T14:04:06;6.68;;;5.40;;
40471;SDS011;26174;42.908;23.800;2023-08-20T14:06:32;6.30;;;3.78;;
40471;SDS011;26174;42.908;23.800;2023-08-20T14:08:58;4.47;;;3.47;;
40471;SDS011;26174;42.908;23.800;2023-08-20T14:11:23;5.38;;;4.10;;
40471;SDS011;26174;42.908;23.800;2023-08-20T14:13:49;7.25;;;3.58;;
40471;SDS011;26174;42.908;23.800;2023-08-20T14:16:14;8.68;;;4.22;;
40471;SDS011;26174;42.908;23.800;2023-08-20T14:18:40;5.60;;;3.40;;
40471;SDS011;26174;42.908;23.800;2023-08-20T14:21:05;5.28;;;3.53;;
40471;SDS011;26174;42.908;23.800;2023-08-20T14:23:31;7.20;;;3.97;;
40471;SDS011;26174;42.908;23.800;2023-08-20T14:25:56;7.43;;;4.13;;
40471;SDS011;26174;42.908;23.800;2023-08-20T14:28:22;5.55;;;3.72;;
40471;SDS011;26174;42.908;23.800;2023-08-20T14:30:48;10.68;;;4.78;;
40471;SDS011;26174;42.908;23.800;2023-08-20T14:33:15;8.88;;;4.03;;
40471;SDS011;26174;42.908;23.800;2023-08-20T14:35:40;13.00;;;4.00;;
40471;SDS011;26174;42.908;23.800;2023-08-20T14:38:06;6.55;;;3.80;;
40471;SDS011;26174;42.908;23.800;2023-08-20T14:40:36;5.20;;;3.72;;
40471;SDS011;26174;42.908;23.800;2023-08-20T14:43:04;7.05;;;4.78;;